Time;durP1;ratioP1;P1;durP2;ratioP2;P2;SDS_P1;SDS_P2;PMS_P1;PMS_P2;Temp;Humidity;BMP_temperature;BMP_pressure;BME280_temperature;BME280_humidity;BME280_pressure;Samples;Min_cycle;Max_cycle;Signal;HPM_P1;HPM_P2
2023/04/29 00:01:39;;;;;;;4.03;3.63;;;;;;;12.55;100.00;154583.59;5047495;28;20451;-81
2023/04/29 00:04:08;;;;;;;3.67;3.27;;;;;;;12.53;100.00;154578.41;5046417;28;20952;-81
2023/04/29 00:06:34;;;;;;;7.30;4.30;;;;;;;12.51;100.00;154571.94;5038243;28;20458;-81
2023/04/29 00:09:01;;;;;;;4.70;4.30;;;;;;;12.49;100.00;154568.06;5075319;28;20457;-81
2023/04/29 00:11:27;;;;;;;4.17;3.77;;;;;;;12.50;100.00;154570.63;5045644;28;20461;-81
2023/04/29 00:13:54;;;;;;;5.70;3.40;;;;;;;12.46;100.00;154558.97;5072480;28;21066;-81
2023/04/29 00:16:20;;;;;;;5.83;3.03;;;;;;;12.43;100.00;154552.50;5045184;28;20566;-81
2023/04/29 00:18:47;;;;;;;3.60;3.30;;;;;;;12.43;100.00;154551.19;5041276;28;20466;-80
2023/04/29 00:21:15;;;;;;;5.03;4.10;;;;;;;12.41;100.00;154546.00;5039833;28;20463;-80
2023/04/29 00:23:41;;;;;;;3.73;3.43;;;;;;;12.37;100.00;154535.59;5074138;28;20484;-81
2023/04/29 00:26:08;;;;;;;5.27;3.47;;;;;;;12.35;100.00;154530.44;5049674;28;20480;-81
2023/04/29 00:28:35;;;;;;;4.20;3.80;;;;;;;12.39;100.00;154542.09;5041378;28;20456;-81
2023/04/29 00:31:02;;;;;;;4.53;4.13;;;;;;;12.39;100.00;154540.84;5047305;28;21057;-81
2023/04/29 00:33:28;;;;;;;4.73;4.23;;;;;;;12.42;100.00;154549.88;5080318;28;20533;-81
2023/04/29 00:35:55;;;;;;;4.33;3.93;;;;;;;12.41;100.00;154546.00;5044425;28;20836;-81
2023/04/29 00:38:23;;;;;;;5.27;4.50;;;;;;;12.38;100.00;154539.53;5043309;28;20839;-81
2023/04/29 00:40:49;;;;;;;5.47;4.47;;;;;;;12.39;100.00;154540.84;5048590;28;20449;-81
2023/04/29 00:43:16;;;;;;;4.90;4.40;;;;;;;12.40;100.00;154543.41;5081000;28;20816;-80
2023/04/29 00:45:43;;;;;;;4.93;4.43;;;;;;;12.33;100.00;154525.25;5055586;28;20448;-81
2023/04/29 00:48:09;;;;;;;5.07;4.57;;;;;;;12.30;100.00;154517.47;5047037;28;20457;-81
2023/04/29 00:50:36;;;;;;;4.70;4.30;;;;;;;12.26;100.00;154508.38;5045744;28;20876;-81
2023/04/29 00:53:03;;;;;;;4.40;4.00;;;;;;;12.23;100.00;154499.34;5045348;28;20915;-80
2023/04/29 00:55:31;;;;;;;5.57;4.70;;;;;;;12.20;100.00;154494.13;5046243;28;20511;-80
2023/04/29 00:57:58;;;;;;;4.13;3.73;;;;;;;12.18;100.00;154487.63;5075961;28;20473;-81
2023/04/29 01:00:25;;;;;;;5.63;4.73;;;;;;;12.19;100.00;154490.25;5047590;28;20470;-81
2023/04/29 01:02:53;;;;;;;5.33;4.60;;;;;;;12.18;100.00;154487.63;5046933;28;20437;-81
2023/04/29 01:05:20;;;;;;;5.27;4.40;;;;;;;12.17;100.00;154486.38;5039780;28;20465;-81
2023/04/29 01:07:56;;;;;;;4.97;4.47;;;;;;;12.19;100.00;154491.56;5040675;28;20437;-81
2023/04/29 01:10:27;;;;;;;4.33;3.93;;;;;;;12.16;100.00;154483.78;5042950;28;20791;-81
2023/04/29 01:13:00;;;;;;;4.90;4.10;;;;;;;12.19;100.00;154490.25;5029537;28;20549;-80
2023/04/29 01:15:30;;;;;;;4.03;3.67;;;;;;;12.18;100.00;154488.94;5077788;28;20615;-81
2023/04/29 01:18:01;;;;;;;4.30;3.90;;;;;;;12.17;100.00;154486.38;5026307;28;20484;-81
2023/04/29 01:20:28;;;;;;;4.77;4.13;;;;;;;12.21;100.00;154495.41;5045540;28;20461;-81
2023/04/29 01:22:54;;;;;;;4.60;4.20;;;;;;;12.18;100.00;154488.94;5039996;28;20668;-81
2023/04/29 01:25:22;;;;;;;5.00;4.53;;;;;;;12.17;100.00;154486.38;5036695;28;20831;-81
2023/04/29 01:28:20;;;;;;;4.43;4.03;;;;;;;12.13;100.00;154475.97;5033656;28;20492;-80
2023/04/29 01:30:50;;;;;;;6.17;4.10;;;;;;;12.13;100.00;154475.97;5045314;28;20518;-81
2023/04/29 01:33:21;;;;;;;4.03;3.63;;;;;;;12.10;100.00;154468.19;5072328;28;20450;-81
2023/04/29 01:36:00;;;;;;;4.30;3.90;;;;;;;12.10;100.00;154468.19;5050996;28;20461;-81
2023/04/29 01:38:34;;;;;;;4.03;3.60;;;;;;;12.13;100.00;154475.97;5019584;28;20582;-81
2023/04/29 01:41:10;;;;;;;4.20;3.57;;;;;;;12.12;100.00;154472.13;5035561;28;20592;-82
2023/04/29 01:43:37;;;;;;;4.27;3.87;;;;;;;12.08;100.00;154463.03;5057856;28;20988;-81
2023/04/29 01:46:17;;;;;;;4.23;3.83;;;;;;;12.05;100.00;154453.94;5031054;28;20464;-81
2023/04/29 01:48:44;;;;;;;4.30;3.90;;;;;;;12.02;100.00;154447.44;5050549;28;20894;-81
2023/04/29 01:51:11;;;;;;;3.83;3.53;;;;;;;11.99;100.00;154439.66;5052630;28;20549;-80
2023/04/29 01:53:39;;;;;;;4.40;4.00;;;;;;;11.98;100.00;154435.81;5032919;28;20445;-81
2023/04/29 01:56:08;;;;;;;3.87;3.50;;;;;;;11.98;100.00;154437.09;5050931;28;20488;-81
2023/04/29 01:59:00;;;;;;;5.13;3.97;;;;;;;11.96;100.00;154430.63;5077191;28;20484;-81
2023/04/29 02:01:27;;;;;;;3.73;3.43;;;;;;;11.95;100.00;154428.00;5051138;28;20461;-81
2023/04/29 02:03:53;;;;;;;5.17;4.60;;;;;;;11.92;100.00;154420.22;5051067;28;20479;-81
2023/04/29 02:06:20;;;;;;;3.90;3.60;;;;;;;11.90;100.00;154416.38;5046495;28;20821;-81
2023/04/29 02:08:51;;;;;;;4.50;4.10;;;;;;;11.89;100.00;154413.75;5045358;28;20464;-81
2023/04/29 02:11:19;;;;;;;4.30;3.90;;;;;;;11.89;100.00;154412.44;5047173;28;20461;-81
2023/04/29 02:13:47;;;;;;;4.40;4.00;;;;;;;11.84;100.00;154400.78;5052481;28;20468;-81
2023/04/29 02:16:15;;;;;;;4.47;3.80;;;;;;;11.89;100.00;154413.75;5048420;28;20456;-81
2023/04/29 02:18:47;;;;;;;4.17;3.77;;;;;;;11.93;100.00;154422.84;5043701;28;20488;-80
2023/04/29 02:21:13;;;;;;;4.03;3.30;;;;;;;11.92;100.00;154420.22;5052503;28;20479;-81
2023/04/29 02:23:40;;;;;;;7.00;3.33;;;;;;;11.94;100.00;154426.72;5050311;28;20984;-80
2023/04/29 02:26:08;;;;;;;3.00;2.70;;;;;;;11.92;100.00;154421.53;5073950;28;20463;-80
2023/04/29 02:28:36;;;;;;;4.00;3.30;;;;;;;11.92;100.00;154421.53;5039231;28;20564;-81
2023/04/29 02:31:04;;;;;;;4.40;3.33;;;;;;;11.95;100.00;154429.31;5059578;28;20938;-81
2023/04/29 02:34:03;;;;;;;4.57;3.97;;;;;;;11.95;100.00;154429.31;5050202;28;20443;-81
2023/04/29 02:36:30;;;;;;;4.57;3.80;;;;;;;11.95;100.00;154429.31;5023783;28;20460;-76
2023/04/29 02:38:57;;;;;;;4.10;3.00;;;;;;;11.92;100.00;154421.53;5023297;28;20489;-76
2023/04/29 02:41:24;;;;;;;3.67;3.30;;;;;;;11.90;100.00;154415.06;5060398;28;20548;-76
2023/04/29 02:43:52;;;;;;;4.53;3.47;;;;;;;11.88;100.00;154411.19;5076978;28;20453;-76
2023/04/29 02:46:19;;;;;;;3.73;3.43;;;;;;;11.86;100.00;154405.97;5048728;28;20450;-76
2023/04/29 02:48:45;;;;;;;4.20;3.00;;;;;;;11.85;100.00;154402.09;5077892;28;20440;-76
2023/04/29 02:51:13;;;;;;;3.70;3.40;;;;;;;11.83;100.00;154396.94;5043122;28;20464;-76
2023/04/29 02:53:39;;;;;;;3.93;3.37;;;;;;;11.81;100.00;154393.00;5042209;28;20553;-76
2023/04/29 02:56:06;;;;;;;3.47;3.17;;;;;;;11.79;100.00;154387.84;5034079;28;20486;-76
2023/04/29 02:58:33;;;;;;;4.20;3.20;;;;;;;11.74;100.00;154374.88;5033708;28;20482;-76
2023/04/29 03:01:08;;;;;;;3.33;3.07;;;;;;;11.75;100.00;154376.19;5029598;28;20454;-76
2023/04/29 03:03:34;;;;;;;3.90;3.50;;;;;;;11.71;100.00;154367.09;5044106;28;20460;-76
2023/04/29 03:06:01;;;;;;;5.73;3.90;;;;;;;11.68;100.00;154359.28;5031816;28;20465;-76
2023/04/29 03:08:27;;;;;;;3.87;3.57;;;;;;;11.64;100.00;154348.94;5044782;28;20448;-76
2023/04/29 03:10:54;;;;;;;3.47;3.17;;;;;;;11.61;100.00;154342.44;5047298;28;20474;-76
2023/04/29 03:13:21;;;;;;;4.07;3.30;;;;;;;11.58;100.00;154334.66;5022211;28;20462;-77
2023/04/29 03:15:48;;;;;;;4.70;4.30;;;;;;;11.57;100.00;154332.06;5049415;28;20995;-76
2023/04/29 03:18:17;;;;;;;4.90;4.50;;;;;;;11.57;100.00;154332.06;5044425;28;21074;-76
2023/04/29 03:20:43;;;;;;;5.17;4.67;;;;;;;11.56;100.00;154329.50;5046548;28;20455;-76
2023/04/29 03:23:10;;;;;;;4.93;4.53;;;;;;;11.55;100.00;154325.59;5030417;28;20468;-76
2023/04/29 03:25:36;;;;;;;6.10;4.90;;;;;;;11.58;100.00;154333.38;5041204;28;20453;-76
2023/04/29 03:28:03;;;;;;;5.43;4.93;;;;;;;11.59;100.00;154335.97;5045491;28;20472;-76
2023/04/29 03:30:31;;;;;;;5.30;4.63;;;;;;;11.60;100.00;154338.53;5038334;28;20474;-76
2023/04/29 03:32:58;;;;;;;4.23;3.83;;;;;;;11.60;100.00;154339.84;5047719;28;20555;-76
2023/04/29 03:35:27;;;;;;;5.07;4.57;;;;;;;11.63;100.00;154346.31;5030218;28;20447;-75
2023/04/29 03:38:14;;;;;;;4.70;4.20;;;;;;;11.62;100.00;154345.00;5042253;28;20606;-76
2023/04/29 03:40:40;;;;;;;5.47;4.70;;;;;;;11.61;100.00;154342.44;5031347;28;20785;-76
2023/04/29 03:43:08;;;;;;;5.00;4.60;;;;;;;11.61;100.00;154341.16;5057638;28;20461;-76
2023/04/29 03:45:34;;;;;;;4.80;4.40;;;;;;;11.61;100.00;154341.16;5048724;28;20788;-76
2023/04/29 03:48:02;;;;;;;5.10;4.70;;;;;;;11.60;100.00;154338.53;5044271;28;20467;-76
2023/04/29 03:50:30;;;;;;;4.67;4.27;;;;;;;11.59;100.00;154335.97;5048618;28;20537;-76
2023/04/29 03:52:57;;;;;;;5.80;4.77;;;;;;;11.57;100.00;154330.75;5039806;28;20913;-76
2023/04/29 03:55:24;;;;;;;5.10;4.60;;;;;;;11.60;100.00;154338.53;5031425;28;20789;-76
2023/04/29 03:57:51;;;;;;;4.77;4.37;;;;;;;11.56;100.00;154329.50;5042885;28;20582;-76
2023/04/29 04:00:19;;;;;;;5.33;3.90;;;;;;;11.53;100.00;154320.41;5045808;28;20554;-76
2023/04/29 04:02:53;;;;;;;5.27;4.57;;;;;;;11.48;100.00;154308.75;5026920;28;20884;-76
2023/04/29 04:05:23;;;;;;;4.33;3.93;;;;;;;11.46;100.00;154302.28;5041951;28;20528;-76
2023/04/29 04:07:55;;;;;;;4.40;4.00;;;;;;;11.43;100.00;154294.50;5037787;28;20544;-76
2023/04/29 04:10:43;;;;;;;5.10;4.60;;;;;;;11.34;100.00;154272.47;5059888;28;20470;-76
2023/04/29 04:13:20;;;;;;;4.90;4.50;;;;;;;11.31;100.00;154263.38;5057671;28;20866;-76
2023/04/29 04:15:49;;;;;;;5.07;4.57;;;;;;;11.21;100.00;154237.47;5044962;28;20596;-76
2023/04/29 04:18:16;;;;;;;4.60;4.20;;;;;;;11.22;100.00;154240.09;5046115;28;20491;-76
2023/04/29 04:20:43;;;;;;;5.17;4.67;;;;;;;11.16;100.00;154225.84;5074345;28;20963;-76
2023/04/29 04:23:11;;;;;;;5.57;5.07;;;;;;;11.12;100.00;154215.44;5046821;28;20490;-76
2023/04/29 04:25:37;;;;;;;4.90;4.47;;;;;;;11.11;100.00;154211.59;5040851;28;20452;-76
2023/04/29 04:28:21;;;;;;;4.67;4.27;;;;;;;11.12;100.00;154214.19;5038227;28;20458;-76
2023/04/29 04:30:58;;;;;;;4.50;4.13;;;;;;;11.15;100.00;154223.22;5043763;28;20524;-76
2023/04/29 04:33:26;;;;;;;5.40;4.90;;;;;;;11.20;100.00;154234.94;5040036;28;20799;-76
2023/04/29 04:35:52;;;;;;;4.50;4.10;;;;;;;11.21;100.00;154238.78;5057848;28;20485;-76
2023/04/29 04:38:22;;;;;;;5.90;4.80;;;;;;;11.24;100.00;154246.56;5033962;28;20481;-76
2023/04/29 04:40:48;;;;;;;5.17;4.67;;;;;;;11.25;100.00;154247.88;5070811;28;20495;-76
2023/04/29 04:43:41;;;;;;;5.73;5.13;;;;;;;11.27;100.00;154253.03;5035558;28;20459;-76
2023/04/29 04:46:16;;;;;;;5.07;4.67;;;;;;;11.30;100.00;154260.81;5037060;28;20452;-76
2023/04/29 04:48:53;;;;;;;5.30;4.70;;;;;;;11.33;100.00;154268.59;5044061;28;20998;-76
2023/04/29 04:51:20;;;;;;;4.70;4.20;;;;;;;11.33;100.00;154268.59;5041498;28;20466;-75
2023/04/29 04:53:48;;;;;;;5.37;4.87;;;;;;;11.33;100.00;154269.84;5027704;28;20463;-75
2023/04/29 04:56:19;;;;;;;5.30;4.80;;;;;;;11.34;100.00;154271.16;5027538;28;20544;-76
2023/04/29 04:58:46;;;;;;;4.43;4.03;;;;;;;11.37;100.00;154280.25;5029776;28;20480;-75
2023/04/29 05:01:14;;;;;;;5.73;5.10;;;;;;;11.39;100.00;154285.41;5054032;28;20463;-76
2023/04/29 05:03:41;;;;;;;4.97;4.47;;;;;;;11.41;100.00;154289.34;5025220;28;20468;-76
2023/04/29 05:06:08;;;;;;;6.00;5.50;;;;;;;11.46;100.00;154303.53;5053619;28;20465;-76
2023/04/29 05:08:35;;;;;;;5.43;4.77;;;;;;;11.54;100.00;154324.28;5035102;28;21035;-76
2023/04/29 05:11:05;;;;;;;4.83;4.43;;;;;;;11.68;100.00;154357.97;5061892;28;20469;-76
2023/04/29 05:13:33;;;;;;;5.20;4.50;;;;;;;11.74;100.00;154374.88;5069629;28;20493;-75
2023/04/29 05:16:02;;;;;;;4.83;4.40;;;;;;;11.78;100.00;154385.22;5054200;28;20449;-76
2023/04/29 05:18:29;;;;;;;4.77;4.13;;;;;;;11.87;100.00;154407.28;5054936;28;20485;-76
2023/04/29 05:20:56;;;;;;;5.00;4.60;;;;;;;11.99;100.00;154438.41;5042352;28;20976;-75
2023/04/29 05:23:23;;;;;;;4.73;4.33;;;;;;;12.01;100.00;154444.91;5040408;28;20813;-76
2023/04/29 05:25:50;;;;;;;6.33;4.90;;;;;;;12.13;100.00;154475.97;5024833;28;20571;-76
2023/04/29 05:28:19;;;;;;;4.77;4.37;;;;;;;12.25;100.00;154504.50;5037875;28;20468;-76
2023/04/29 05:30:47;;;;;;;5.70;4.97;;;;;;;12.41;100.00;154546.00;5037570;28;20972;-76
2023/04/29 05:33:14;;;;;;;4.97;4.47;;;;;;;12.51;100.00;154573.25;5026564;28;20454;-76
2023/04/29 05:35:41;;;;;;;5.13;4.63;;;;;;;12.53;100.00;154578.41;5040798;28;20450;-76
2023/04/29 05:38:07;;;;;;;5.07;4.67;;;;;;;12.55;100.00;154582.34;5040900;28;20490;-76
2023/04/29 05:40:40;;;;;;;5.67;4.53;;;;;;;12.57;100.00;154587.50;5053503;28;20550;-76
2023/04/29 05:43:28;;;;;;;5.33;4.70;;;;;;;12.53;100.00;154578.41;5039958;28;20464;-76
2023/04/29 05:45:56;;;;;;;8.63;5.27;;;;;;;12.54;100.00;154579.72;5024134;28;20459;-76
2023/04/29 05:48:24;;;;;;;6.93;5.57;;;;;;;12.57;100.00;154588.81;5048965;28;20783;-76
2023/04/29 05:50:51;;;;;;;6.00;5.40;;;;;;;12.68;100.00;154616.03;5041522;28;20476;-76
2023/04/29 05:53:17;;;;;;;7.07;5.57;;;;;;;12.72;100.00;154627.72;5039648;28;20457;-76
2023/04/29 05:55:45;;;;;;;6.03;5.43;;;;;;;12.77;100.00;154639.38;5040511;28;20450;-76
2023/04/29 05:58:12;;;;;;;6.67;5.70;;;;;;;12.80;100.00;154648.47;5040610;28;20486;-76
2023/04/29 06:00:42;;;;;;;6.40;5.80;;;;;;;12.85;100.00;154660.13;5040157;28;20466;-76
2023/04/29 06:03:15;;;;;;;7.67;6.87;;;;;;;13.05;100.00;154710.72;5058479;28;20953;-76
2023/04/29 06:05:42;;;;;;;6.87;6.27;;;;;;;13.11;100.00;154727.63;5072343;28;20451;-76
2023/04/29 06:08:31;;;;;;;6.97;6.00;;;;;;;13.08;100.00;154718.56;5073696;28;20466;-76
2023/04/29 06:11:04;;;;;;;6.73;6.13;;;;;;;13.07;100.00;154717.25;5032398;28;20451;-76
2023/04/29 06:13:30;;;;;;;6.23;5.67;;;;;;;13.15;100.00;154736.72;5038869;28;20486;-75
2023/04/29 06:15:58;;;;;;;5.70;5.17;;;;;;;13.28;100.00;154771.75;5046486;28;20463;-75
2023/04/29 06:18:29;;;;;;;6.80;6.00;;;;;;;13.41;100.00;154805.50;5053892;28;20479;-76
2023/04/29 06:20:57;;;;;;;6.47;5.30;;;;;;;13.47;100.00;154819.78;5040472;28;20456;-76
2023/04/29 06:23:24;;;;;;;5.43;4.93;;;;;;;13.44;100.00;154811.97;5071974;28;20471;-76
2023/04/29 06:25:51;;;;;;;6.30;5.70;;;;;;;13.37;100.00;154795.09;5040823;28;20510;-75
2023/04/29 06:28:17;;;;;;;5.83;5.10;;;;;;;13.37;100.00;154795.09;5054486;28;20899;-76
2023/04/29 06:30:45;;;;;;;5.00;4.60;;;;;;;13.28;100.00;154771.75;5040163;28;21130;-76
2023/04/29 06:33:14;;;;;;;6.20;4.57;;;;;;;13.25;100.00;154763.97;5044940;28;20853;-75
2023/04/29 06:35:41;;;;;;;6.30;5.70;;;;;;;13.21;100.00;154752.31;5038017;28;20460;-75
2023/04/29 06:38:41;;;;;;;11.53;5.57;;;;;;;13.17;100.00;154741.91;5053615;28;20521;-76
2023/04/29 06:41:29;;;;;;;6.20;5.67;;;;;;;13.17;100.00;154743.22;5053641;28;20448;-75
2023/04/29 06:44:15;;;;;;;6.20;5.70;;;;;;;13.15;100.00;154738.03;5070242;28;20460;-77
2023/04/29 06:47:04;;;;;;;6.03;5.53;;;;;;;13.08;100.00;154719.81;5038985;28;20812;-75
2023/04/29 06:49:49;;;;;;;6.60;6.00;;;;;;;13.04;100.00;154708.13;5025713;28;20541;-75
2023/04/29 06:52:16;;;;;;;5.53;4.97;;;;;;;13.03;100.00;154706.81;5036333;28;20447;-76
2023/04/29 06:54:43;;;;;;;5.93;5.23;;;;;;;13.02;100.00;154704.25;5054682;28;20510;-75
2023/04/29 06:57:09;;;;;;;6.17;5.57;;;;;;;13.02;100.00;154704.25;5040154;28;20509;-75
2023/04/29 06:59:36;;;;;;;6.10;5.40;;;;;;;13.05;100.00;154712.00;5036861;28;20832;-76
2023/04/29 07:02:03;;;;;;;5.40;4.90;;;;;;;13.11;100.00;154727.63;5071426;28;20459;-76
2023/04/29 07:04:30;;;;;;;5.37;4.87;;;;;;;13.19;100.00;154747.06;5040504;28;20816;-76
2023/04/29 07:06:58;;;;;;;5.50;5.00;;;;;;;13.32;100.00;154782.13;5041281;28;20459;-75
2023/04/29 07:09:26;;;;;;;6.30;5.70;;;;;;;13.60;100.00;154853.50;5042086;28;20443;-75
2023/04/29 07:11:53;;;;;;;5.60;5.10;;;;;;;13.73;100.00;154885.94;5039361;28;20459;-75
2023/04/29 07:14:21;;;;;;;5.97;5.37;;;;;;;13.78;100.00;154898.91;5039077;28;20637;-76
2023/04/29 07:16:47;;;;;;;6.50;5.87;;;;;;;13.79;100.00;154901.53;5036059;28;20463;-76
2023/04/29 07:19:14;;;;;;;6.70;6.10;;;;;;;13.72;100.00;154884.63;5071540;28;20583;-76
2023/04/29 07:21:40;;;;;;;9.80;5.37;;;;;;;13.61;100.00;154854.81;5035420;28;20941;-76
2023/04/29 07:24:08;;;;;;;5.73;5.17;;;;;;;13.59;100.00;154849.59;5070706;28;21230;-76
2023/04/29 07:26:35;;;;;;;6.37;5.77;;;;;;;13.56;100.00;154841.78;5035410;28;20478;-76
2023/04/29 07:29:01;;;;;;;6.77;6.07;;;;;;;13.52;100.00;154831.44;5067986;28;20521;-75
2023/04/29 07:31:28;;;;;;;5.33;4.83;;;;;;;13.47;100.00;154818.47;5071060;28;20457;-75
2023/04/29 07:33:55;;;;;;;6.30;4.50;;;;;;;13.47;100.00;154819.78;5044288;28;20491;-76
2023/04/29 07:36:22;;;;;;;5.17;4.67;;;;;;;13.45;100.00;154813.28;5040272;28;20446;-76
2023/04/29 07:38:49;;;;;;;5.50;5.03;;;;;;;13.44;100.00;154811.97;5039012;28;20490;-75
2023/04/29 07:41:17;;;;;;;4.70;4.30;;;;;;;13.54;100.00;154836.63;5071865;28;20563;-76
2023/04/29 07:43:43;;;;;;;5.10;4.60;;;;;;;13.63;100.00;154860.00;5037454;28;20487;-76
2023/04/29 07:46:10;;;;;;;5.43;4.47;;;;;;;13.79;100.00;154901.53;5072173;28;20459;-75
2023/04/29 07:48:38;;;;;;;5.90;4.20;;;;;;;13.79;100.00;154901.53;5068455;28;20464;-75
2023/04/29 07:51:04;;;;;;;4.47;4.07;;;;;;;13.78;100.00;154898.91;5018394;28;21053;-76
2023/04/29 07:53:31;;;;;;;3.50;3.20;;;;;;;13.85;100.00;154917.06;5039123;28;20465;-76
2023/04/29 07:55:57;;;;;;;4.33;3.93;;;;;;;13.90;100.00;154930.06;5073191;28;20455;-75
2023/04/29 07:58:28;;;;;;;3.97;3.60;;;;;;;13.88;100.00;154924.88;5032647;28;20525;-76
2023/04/29 08:00:55;;;;;;;3.87;3.57;;;;;;;13.83;100.00;154911.91;5016036;28;20493;-76
2023/04/29 08:03:22;;;;;;;3.50;3.20;;;;;;;13.85;100.00;154917.06;5038006;28;20561;-76
2023/04/29 08:05:50;;;;;;;4.20;3.80;;;;;;;13.87;100.00;154922.31;5037078;28;20453;-75
2023/04/29 08:08:17;;;;;;;4.67;4.27;;;;;;;13.84;100.00;154914.50;5038412;28;20818;-75
2023/04/29 08:10:43;;;;;;;3.70;3.40;;;;;;;13.85;100.00;154917.06;5066579;28;20452;-75
2023/04/29 08:13:10;;;;;;;3.90;3.50;;;;;;;13.86;100.00;154919.69;5039126;28;20945;-75
2023/04/29 08:15:38;;;;;;;3.60;3.30;;;;;;;13.79;100.00;154901.53;5031513;28;20473;-75
2023/04/29 08:18:04;;;;;;;3.60;3.30;;;;;;;13.81;100.00;154908.03;5034652;28;20460;-75
2023/04/29 08:20:31;;;;;;;4.60;3.80;;;;;;;13.80;100.00;154905.41;5029951;28;20516;-75
2023/04/29 08:22:59;;;;;;;4.10;3.60;;;;;;;13.80;100.00;154905.41;5033323;28;20463;-75
2023/04/29 08:25:25;;;;;;;4.33;3.93;;;;;;;13.84;100.00;154914.50;5064534;28;20455;-75
2023/04/29 08:27:52;;;;;;;4.83;4.43;;;;;;;13.84;100.00;154914.50;5059667;28;20467;-75
2023/04/29 08:30:19;;;;;;;3.93;3.57;;;;;;;13.82;100.00;154909.34;5065456;28;20459;-75
2023/04/29 08:32:49;;;;;;;6.13;4.00;;;;;;;13.88;100.00;154924.88;5035343;28;20459;-75
2023/04/29 08:35:16;;;;;;;4.03;3.67;;;;;;;13.80;100.00;154904.09;5062108;28;20453;-75
2023/04/29 08:37:43;;;;;;;3.90;3.50;;;;;;;13.87;100.00;154922.31;5033963;28;20475;-76
2023/04/29 08:40:10;;;;;;;3.40;3.10;;;;;;;13.88;100.00;154926.19;5038084;28;20476;-76
2023/04/29 08:42:37;;;;;;;4.30;3.97;;;;;;;13.87;100.00;154922.31;5033444;28;20488;-77
2023/04/29 08:45:05;;;;;;;4.60;4.20;;;;;;;13.90;100.00;154930.06;5029270;28;20451;-77
2023/04/29 08:47:32;;;;;;;4.50;4.10;;;;;;;13.83;100.00;154911.91;5059114;28;20448;-77
2023/04/29 08:50:02;;;;;;;4.00;3.70;;;;;;;13.79;100.00;154901.53;5058445;28;20448;-77
2023/04/29 08:52:29;;;;;;;4.77;4.27;;;;;;;13.79;100.00;154901.53;5025642;28;20481;-77
2023/04/29 08:54:56;;;;;;;6.27;4.00;;;;;;;13.85;100.00;154917.06;5029316;28;20447;-77
2023/04/29 08:57:24;;;;;;;4.43;3.83;;;;;;;13.72;100.00;154884.63;5034679;28;20483;-77
2023/04/29 08:59:51;;;;;;;3.53;3.23;;;;;;;13.76;100.00;154893.75;5065879;28;20564;-77
2023/04/29 09:02:20;;;;;;;4.63;3.80;;;;;;;13.68;100.00;154874.28;5013213;28;20471;-77
2023/04/29 09:04:48;;;;;;;4.37;3.97;;;;;;;13.71;100.00;154880.78;5023036;28;20517;-77
2023/04/29 09:07:16;;;;;;;4.60;4.20;;;;;;;13.69;100.00;154875.53;5038524;28;20530;-77
2023/04/29 09:09:43;;;;;;;4.30;3.90;;;;;;;13.65;100.00;154865.19;5066788;28;20460;-77
2023/04/29 09:12:10;;;;;;;5.17;4.67;;;;;;;13.63;100.00;154860.00;5066096;28;20463;-77
2023/04/29 09:14:36;;;;;;;4.57;4.17;;;;;;;13.62;100.00;154858.69;5033622;28;20536;-77
2023/04/29 09:17:03;;;;;;;4.10;3.77;;;;;;;13.71;100.00;154880.78;5032606;28;20520;-77
2023/04/29 09:19:31;;;;;;;6.77;4.50;;;;;;;13.78;100.00;154898.91;5067194;28;20480;-77
2023/04/29 09:21:58;;;;;;;4.60;4.13;;;;;;;13.80;100.00;154904.09;5067163;28;20992;-77
2023/04/29 09:24:27;;;;;;;4.63;4.23;;;;;;;13.85;100.00;154917.06;5034765;28;20455;-76
2023/04/29 09:26:54;;;;;;;5.17;4.70;;;;;;;13.90;100.00;154930.06;5064797;28;20811;-77
2023/04/29 09:29:20;;;;;;;4.60;4.20;;;;;;;13.96;100.00;154945.66;5065071;28;20800;-77
2023/04/29 09:31:47;;;;;;;5.03;4.53;;;;;;;14.00;100.00;154956.06;5035570;28;20482;-77
2023/04/29 09:34:15;;;;;;;4.87;4.47;;;;;;;13.93;100.00;154937.84;5067221;28;20460;-77
2023/04/29 09:36:43;;;;;;;5.07;4.67;;;;;;;13.91;100.00;154932.66;5031878;28;20844;-77
2023/04/29 09:39:11;;;;;;;6.00;5.40;;;;;;;13.90;100.00;154930.06;5064366;28;20466;-77
2023/04/29 09:42:01;;;;;;;5.40;4.90;;;;;;;13.92;100.00;154935.28;5036929;28;21022;-77
2023/04/29 09:44:29;;;;;;;5.43;4.93;;;;;;;14.10;100.00;154980.72;5069462;28;20449;-77
2023/04/29 09:46:57;;;;;;;5.50;4.90;;;;;;;14.29;100.00;155030.06;5065564;28;20875;-84
2023/04/29 09:49:24;;;;;;;5.40;4.90;;;;;;;14.44;100.00;155070.38;5033372;28;20462;-84
2023/04/29 09:51:56;;;;;;;6.70;6.00;;;;;;;14.51;100.00;155088.53;5070474;28;20480;-84
2023/04/29 09:54:24;;;;;;;5.77;5.27;;;;;;;14.52;100.00;155091.16;5035989;28;20462;-84
2023/04/29 09:56:53;;;;;;;6.20;5.60;;;;;;;14.55;100.00;155098.94;5039476;28;20772;-84
2023/04/29 09:59:19;;;;;;;6.07;5.57;;;;;;;14.59;98.01;155109.31;5036085;28;20473;-84
2023/04/29 10:01:48;;;;;;;4.93;4.53;;;;;;;14.72;100.00;155140.50;5035548;28;20446;-84
2023/04/29 10:04:16;;;;;;;4.60;3.70;;;;;;;14.78;100.00;155156.06;5036842;28;20514;-84
2023/04/29 10:06:44;;;;;;;3.80;3.40;;;;;;;14.76;95.23;155150.88;5071628;28;20965;-84
2023/04/29 10:09:14;;;;;;;5.00;4.50;;;;;;;14.85;100.00;155175.53;5041400;28;20458;-84
2023/04/29 10:11:42;;;;;;;4.30;3.90;;;;;;;14.92;96.87;155192.47;5072015;28;20479;-84
2023/04/29 10:14:12;;;;;;;3.90;3.50;;;;;;;15.00;94.90;155213.25;5058582;28;20498;-84
2023/04/29 10:16:46;;;;;;;5.17;4.20;;;;;;;15.17;99.94;155257.41;5017633;28;20453;-84
2023/04/29 10:19:16;;;;;;;4.00;3.57;;;;;;;15.24;96.33;155275.63;5036294;28;20448;-84
2023/04/29 10:21:42;;;;;;;3.93;3.10;;;;;;;15.28;92.97;155286.00;5018043;28;20570;-84
2023/04/29 10:24:12;;;;;;;4.10;3.30;;;;;;;15.22;88.28;155270.44;5035341;28;20461;-84
2023/04/29 10:26:40;;;;;;;4.13;3.73;;;;;;;15.28;95.85;155286.00;5035553;28;20467;-84
2023/04/29 10:29:09;;;;;;;4.10;3.53;;;;;;;15.27;93.18;155283.44;5021825;28;20545;-84
2023/04/29 10:31:38;;;;;;;3.33;3.03;;;;;;;15.32;92.69;155296.41;5035991;28;20956;-84
2023/04/29 10:34:05;;;;;;;3.43;3.13;;;;;;;15.39;93.12;155314.59;5019583;28;20819;-83
2023/04/29 10:36:32;;;;;;;4.33;2.60;;;;;;;15.48;86.26;155338.06;5038755;28;20554;-84
2023/04/29 10:39:02;;;;;;;3.10;2.80;;;;;;;15.49;86.35;155340.63;5024872;28;20470;-83
2023/04/29 10:41:34;;;;;;;3.00;2.50;;;;;;;15.54;90.33;155352.38;5025553;28;20490;-84
2023/04/29 10:44:03;;;;;;;2.90;2.60;;;;;;;15.56;89.56;155358.84;5032820;28;20458;-84
2023/04/29 10:46:30;;;;;;;7.03;3.20;;;;;;;15.55;89.72;155356.25;5033681;28;20451;-84
2023/04/29 10:49:01;;;;;;;3.70;3.17;;;;;;;15.51;89.23;155344.56;5023768;28;20479;-83
2023/04/29 10:51:31;;;;;;;4.80;4.00;;;;;;;15.52;90.34;155347.13;5035372;28;20511;-84
2023/04/29 10:53:59;;;;;;;3.27;2.97;;;;;;;15.55;90.67;155356.25;5034062;28;20464;-84
2023/04/29 10:56:36;;;;;;;3.77;3.33;;;;;;;15.60;84.83;155369.22;5034120;28;20505;-83
2023/04/29 10:59:03;;;;;;;4.40;4.00;;;;;;;15.60;85.24;155369.22;5018924;28;20455;-84
2023/04/29 11:01:41;;;;;;;3.93;3.50;;;;;;;15.62;90.22;155374.41;5021944;28;20562;-84
2023/04/29 11:04:09;;;;;;;3.73;3.10;;;;;;;15.53;84.80;155351.06;5032250;28;20455;-84
2023/04/29 11:06:51;;;;;;;3.70;3.13;;;;;;;15.52;87.40;155348.44;5018953;28;20930;-85
2023/04/29 11:09:26;;;;;;;5.43;3.50;;;;;;;15.53;85.12;155351.06;5035994;28;20457;-84
2023/04/29 11:11:59;;;;;;;4.30;3.90;;;;;;;15.55;89.60;155356.25;5018777;28;20824;-84
2023/04/29 11:14:28;;;;;;;3.40;3.10;;;;;;;15.47;83.59;155335.44;5013221;28;20724;-84
2023/04/29 11:16:57;;;;;;;4.80;3.90;;;;;;;15.51;88.82;155345.88;5015124;28;20507;-85
2023/04/29 11:19:27;;;;;;;4.17;3.77;;;;;;;15.52;88.75;155348.44;5012536;28;20453;-84
2023/04/29 11:22:08;;;;;;;3.97;3.67;;;;;;;15.54;90.03;155352.38;5033996;28;20472;-84
2023/04/29 11:24:36;;;;;;;4.07;3.67;;;;;;;15.51;89.06;155345.88;5017063;28;20463;-85
2023/04/29 11:27:04;;;;;;;4.03;3.27;;;;;;;15.60;88.87;155369.22;5021774;28;20998;-84
2023/04/29 11:29:31;;;;;;;5.40;3.40;;;;;;;15.55;82.25;155356.25;5014342;28;20459;-84